createdAt,value
2022-08-29T00:04:40.266Z,20.76
2022-08-29T00:09:42.579Z,20.58
2022-08-29T00:14:44.789Z,20.72
2022-08-29T00:19:46.910Z,20.27
2022-08-29T00:24:49.272Z,20.38
2022-08-29T00:29:51.478Z,20.23
2022-08-29T00:34:53.904Z,20.30
2022-08-29T00:39:56.100Z,20.08
2022-08-29T00:44:58.859Z,19.97
2022-08-29T00:50:02.940Z,20.13
2022-08-29T00:55:12.435Z,19.99
2022-08-29T01:00:16.905Z,19.54
2022-08-29T01:05:20.027Z,19.89
2022-08-29T01:10:41.163Z,19.83
2022-08-29T01:15:44.379Z,19.73
2022-08-29T01:20:50.169Z,19.90
2022-08-29T01:26:12.071Z,19.90
2022-08-29T01:31:42.186Z,19.65
2022-08-29T01:36:42.450Z,19.87
2022-08-29T01:41:44.654Z,19.61
2022-08-29T01:46:49.037Z,19.72
2022-08-29T01:51:52.036Z,19.42
2022-08-29T01:56:54.770Z,19.15
2022-08-29T02:02:05.548Z,19.33
2022-08-29T02:07:12.065Z,18.75
2022-08-29T02:12:33.674Z,19.29
2022-08-29T02:17:36.554Z,18.68
2022-08-29T02:22:39.779Z,19.01
2022-08-29T02:27:42.730Z,19.18
2022-08-29T02:32:44.902Z,19.22
2022-08-29T02:38:06.913Z,18.56
2022-08-29T02:43:09.209Z,18.72
2022-08-29T02:48:14.835Z,19.30
2022-08-29T02:53:20.232Z,18.81
2022-08-29T02:58:23.335Z,19.08
2022-08-29T03:03:25.961Z,18.78
2022-08-29T03:08:28.093Z,18.98
2022-08-29T03:13:30.226Z,18.37
2022-08-29T03:18:32.644Z,19.05
2022-08-29T03:23:34.800Z,18.67
2022-08-29T03:28:55.936Z,18.96
2022-08-29T03:33:58.132Z,18.57
2022-08-29T03:39:19.326Z,19.37
2022-08-29T03:44:41.181Z,19.30
2022-08-29T03:49:43.345Z,19.43
2022-08-29T03:55:07.146Z,19.41
2022-08-29T04:00:27.842Z,19.05
2022-08-29T04:05:42.719Z,19.25
2022-08-29T04:10:45.584Z,19.24
2022-08-29T04:15:47.848Z,19.69
2022-08-29T04:20:50.082Z,19.37
2022-08-29T04:26:07.274Z,19.28
2022-08-29T04:31:21.684Z,19.02
2022-08-29T04:36:24.078Z,19.47
2022-08-29T04:41:26.502Z,19.47
2022-08-29T04:46:29.155Z,19.73
2022-08-29T04:51:32.500Z,19.78
2022-08-29T04:56:35.757Z,19.63
2022-08-29T05:01:39.058Z,19.57
2022-08-29T05:06:44.545Z,19.61
2022-08-29T05:11:46.691Z,19.37
2022-08-29T05:16:51.283Z,19.51
2022-08-29T05:21:58.115Z,19.98
2022-08-29T05:27:08.168Z,20.08
2022-08-29T05:32:11.840Z,19.97
2022-08-29T05:37:19.557Z,20.10
2022-08-29T05:42:24.229Z,20.26
2022-08-29T05:47:26.716Z,20.42
2022-08-29T05:52:29.756Z,20.07
2022-08-29T05:57:32.087Z,20.37
2022-08-29T06:02:34.628Z,20.46
2022-08-29T06:07:37.001Z,20.59
2022-08-29T06:12:39.184Z,20.44
2022-08-29T06:17:41.372Z,20.33
2022-08-29T06:22:43.595Z,20.71
2022-08-29T06:28:04.664Z,20.81
2022-08-29T06:33:11.187Z,20.79
2022-08-29T06:38:14.261Z,20.54
2022-08-29T06:43:17.858Z,21.16
2022-08-29T06:48:21.001Z,20.72
2022-08-29T06:53:31.681Z,21.10
2022-08-29T06:58:35.302Z,21.22
2022-08-29T07:03:37.888Z,21.29
2022-08-29T07:13:52.892Z,21.90
2022-08-29T07:18:55.602Z,21.59
2022-08-29T07:23:58.886Z,22.08
2022-08-29T07:29:03.240Z,22.27
2022-08-29T07:34:06.462Z,21.92
2022-08-29T07:39:11.651Z,22.50
2022-08-29T07:44:14.899Z,22.49
2022-08-29T07:49:17.647Z,22.50
2022-08-29T07:54:20.482Z,22.66
2022-08-29T07:59:22.748Z,23.12
2022-08-29T08:04:24.962Z,23.07
2022-08-29T08:09:28.070Z,23.09
2022-08-29T08:14:34.680Z,23.66
2022-08-29T08:19:38.209Z,23.45
2022-08-29T08:24:40.378Z,23.70
2022-08-29T08:29:44.050Z,23.78
2022-08-29T08:34:46.284Z,24.03
2022-08-29T08:39:48.523Z,23.49
2022-08-29T08:45:15.980Z,24.43
2022-08-29T08:51:03.535Z,24.58
2022-08-29T08:56:24.644Z,24.66
2022-08-29T09:01:34.769Z,24.68
2022-08-29T09:06:59.645Z,24.81
2022-08-29T09:12:16.261Z,24.92
2022-08-29T09:17:42.428Z,24.73
2022-08-29T09:22:52.499Z,24.66
2022-08-29T09:27:54.660Z,24.63
2022-08-29T09:32:58.316Z,25.18
2022-08-29T09:38:05.158Z,25.19
2022-08-29T09:43:08.114Z,25.21
2022-08-29T09:48:17.791Z,25.57
2022-08-29T09:53:24.754Z,25.20
2022-08-29T09:58:32.648Z,25.50
2022-08-29T10:03:44.645Z,25.15
2022-08-29T10:09:08.841Z,25.63
2022-08-29T10:14:15.604Z,25.16
2022-08-29T10:19:26.791Z,25.26
2022-08-29T10:24:58.571Z,25.47
2022-08-29T10:30:11.136Z,25.53
2022-08-29T10:35:20.078Z,25.57
2022-08-29T10:40:43.353Z,25.65
2022-08-29T10:45:57.166Z,25.76
2022-08-29T10:51:24.021Z,25.90
2022-08-29T10:56:39.572Z,25.70
2022-08-29T11:01:53.888Z,25.97
2022-08-29T11:07:18.163Z,25.57
2022-08-29T11:12:52.870Z,26.14
2022-08-29T11:18:15.617Z,26.02
2022-08-29T11:23:34.616Z,26.04
2022-08-29T11:28:46.665Z,26.07
2022-08-29T11:33:59.343Z,26.11
2022-08-29T11:39:18.033Z,25.92
2022-08-29T11:44:45.525Z,26.13
2022-08-29T11:49:51.069Z,25.88
2022-08-29T11:55:16.204Z,25.77
2022-08-29T12:00:55.078Z,26.06
2022-08-29T12:06:01.930Z,25.84
2022-08-29T12:11:05.344Z,25.84
2022-08-29T12:16:11.322Z,25.61
2022-08-29T12:21:37.386Z,25.92
2022-08-29T12:26:43.590Z,25.75
2022-08-29T12:32:17.880Z,25.74
2022-08-29T12:37:43.899Z,25.74
2022-08-29T12:43:10.515Z,25.75
2022-08-29T12:48:33.883Z,25.88
2022-08-29T12:53:37.256Z,25.73
2022-08-29T12:58:42.508Z,25.73
2022-08-29T13:04:01.155Z,25.53
2022-08-29T13:09:06.284Z,25.38
2022-08-29T13:14:14.715Z,25.07
2022-08-29T13:19:21.589Z,24.91
2022-08-29T13:24:23.875Z,24.51
2022-08-29T13:34:37.454Z,24.44
2022-08-29T13:39:57.981Z,24.63
2022-08-29T13:45:12.074Z,24.69
2022-08-29T13:50:15.403Z,24.29
2022-08-29T13:55:18.898Z,24.08
2022-08-29T14:00:32.036Z,24.53
2022-08-29T14:05:37.388Z,24.01
2022-08-29T14:10:39.944Z,24.33
2022-08-29T14:15:42.306Z,24.36
2022-08-29T14:20:44.569Z,24.23
2022-08-29T14:25:46.783Z,24.22
2022-08-29T14:30:52.297Z,24.21
2022-08-29T14:35:56.062Z,24.17
2022-08-29T14:40:58.234Z,24.01
2022-08-29T14:46:00.778Z,24.05
2022-08-29T14:51:03.072Z,23.90
2022-08-29T14:56:05.651Z,23.98
2022-08-29T15:01:10.527Z,24.02
2022-08-29T15:06:13.556Z,23.85
2022-08-29T15:11:15.708Z,23.29
2022-08-29T15:16:17.903Z,23.37
2022-08-29T15:21:20.237Z,23.41
2022-08-29T15:26:25.361Z,23.50
2022-08-29T15:31:27.631Z,23.76
2022-08-29T15:36:29.948Z,23.74
2022-08-29T15:41:33.193Z,23.34
2022-08-29T15:46:38.057Z,23.56
2022-08-29T15:51:40.585Z,23.41
2022-08-29T15:56:43.206Z,23.26
2022-08-29T16:01:49.066Z,23.31
2022-08-29T16:06:52.410Z,23.38
2022-08-29T16:11:54.803Z,22.66
2022-08-29T16:17:00.170Z,22.89
2022-08-29T16:22:02.565Z,23.31
2022-08-29T16:27:05.276Z,23.13
2022-08-29T16:32:11.215Z,22.85
2022-08-29T16:37:13.352Z,23.09
2022-08-29T16:42:15.584Z,22.78
2022-08-29T16:47:20.193Z,22.91
2022-08-29T16:52:22.592Z,22.95
2022-08-29T16:57:25.048Z,22.90
2022-08-29T17:02:28.714Z,23.00
2022-08-29T17:07:33.589Z,22.66
2022-08-29T17:12:35.740Z,22.21
2022-08-29T17:17:37.960Z,22.35
2022-08-29T17:22:43.202Z,22.43
2022-08-29T17:28:07.474Z,22.56
2022-08-29T17:33:11.906Z,22.52
2022-08-29T17:38:15.175Z,22.38
2022-08-29T17:43:18.855Z,22.63
2022-08-29T17:48:21.525Z,22.45
2022-08-29T17:53:25.323Z,21.91
2022-08-29T17:58:27.423Z,22.07
2022-08-29T18:03:29.651Z,21.68
2022-08-29T18:08:31.911Z,22.19
2022-08-29T18:13:34.287Z,22.14
2022-08-29T18:18:39.456Z,22.31
2022-08-29T18:23:41.665Z,22.26
2022-08-29T18:28:44.015Z,22.03
2022-08-29T18:34:04.162Z,22.03
2022-08-29T18:39:07.183Z,22.09
2022-08-29T18:44:13.323Z,21.99
2022-08-29T18:49:16.040Z,20.79
2022-08-29T18:54:19.334Z,21.13
2022-08-29T18:59:24.250Z,21.77
2022-08-29T19:04:26.654Z,21.87
2022-08-29T19:09:28.987Z,22.06
2022-08-29T19:14:31.270Z,21.48
2022-08-29T19:19:55.062Z,21.30
2022-08-29T19:24:58.828Z,21.75
2022-08-29T19:30:05.247Z,21.49
2022-08-29T19:35:11.258Z,21.34
2022-08-29T19:40:15.595Z,21.24
2022-08-29T19:45:20.555Z,21.55
2022-08-29T19:50:24.997Z,21.32
2022-08-29T19:55:28.594Z,21.43
2022-08-29T20:00:33.355Z,21.10
2022-08-29T20:05:35.863Z,21.04
2022-08-29T20:10:39.628Z,20.76
2022-08-29T20:15:43.046Z,20.82
2022-08-29T20:20:45.858Z,21.20
2022-08-29T20:25:51.238Z,20.74
2022-08-29T20:30:53.890Z,20.96
2022-08-29T20:36:14.531Z,20.92
2022-08-29T20:41:21.249Z,20.72
2022-08-29T20:46:23.693Z,21.10
2022-08-29T20:51:25.996Z,20.98
2022-08-29T20:56:28.330Z,20.88
2022-08-29T21:01:30.650Z,21.17
2022-08-29T21:06:33.319Z,21.01
2022-08-29T21:11:35.601Z,20.36
2022-08-29T21:16:37.973Z,20.88
2022-08-29T21:21:41.099Z,20.92
2022-08-29T21:26:43.661Z,20.91
2022-08-29T21:31:47.384Z,20.49
2022-08-29T21:36:51.000Z,20.85
2022-08-29T21:41:53.272Z,20.90
2022-08-29T21:46:55.566Z,20.67
2022-08-29T21:51:57.948Z,20.58
2022-08-29T21:57:00.184Z,20.82
2022-08-29T22:02:05.535Z,20.90
2022-08-29T22:07:09.406Z,20.69
2022-08-29T22:12:11.648Z,20.35
2022-08-29T22:17:14.969Z,20.82
2022-08-29T22:22:17.227Z,20.69
2022-08-29T22:27:19.684Z,20.66
2022-08-29T22:32:21.994Z,20.03
2022-08-29T22:37:27.985Z,19.88
2022-08-29T22:42:32.271Z,20.38
2022-08-29T22:47:35.911Z,20.69
2022-08-29T22:52:38.300Z,20.45
2022-08-29T22:57:42.221Z,20.50
2022-08-29T23:02:44.477Z,20.17
2022-08-29T23:07:47.006Z,20.35
2022-08-29T23:12:50.798Z,20.42
2022-08-29T23:17:52.975Z,20.41
2022-08-29T23:22:55.241Z,20.25
2022-08-29T23:27:58.772Z,20.29
2022-08-29T23:33:01.156Z,20.29
2022-08-29T23:38:03.480Z,20.20
2022-08-29T23:43:10.173Z,20.43
2022-08-29T23:48:12.442Z,20.39
2022-08-29T23:53:14.836Z,19.99
2022-08-29T23:58:17.972Z,20.32
